Airfield :
LOGIN :

Register | Disclaimer

   EN    FR    IT 

 










Legend :    VFR   Marginal VFR   IFR   Intensive IFR   Very Intensive IFR
Visi :
Ceiling :
>= 8 km
>= 3000ft
5 to 8 km
1000 to 3000 ft
1500m to 5 km
500 to 1000 ft
800 to 1500m
200 to 500 ft
< 800m
< 200 ft
Symbols :   Thunderstorms  Fog  Heavy snow  Heavy precipitations  Wind > 20 kt
SIGMETs :     Misc.  Thunderstorms  Icing  Turbulence  Mountain Waves  Volcanic Ashes






- Airport Elevation : 65 ft
- IATA code : LLA


ESPA - Luleå

CURRENT METAR :
  • 141120Z 14009KT CAVOK 17/09 Q1012

EXPIRED METARs :
  • 141050Z 14006KT CAVOK 17/08 Q1012
  • 141020Z 12007KT CAVOK 17/09 Q1012
  • 140950Z 20003KT 150V240 9999 FEW045 BKN072 SCT220 15/08 Q1012
  • 140920Z 21004KT 160V240 9999 -SHRA FEW045 BKN060 FEW220 15/09 Q1012
  • 140850Z 21005KT 170V230 9999 VCSH FEW045CB BKN060 FEW220 15/09 Q1012
  • 140820Z 21006KT 9999 FEW042 BKN060 FEW220 15/09 Q1012
  • 140750Z 23006KT 200V280 9999 FEW044 BKN072 FEW220 16/09 Q1012
  • 140720Z 24004KT 200V280 CAVOK 16/11 Q1012
  • 140650Z 23004KT 200V260 9999 FEW047 BKN080 FEW220 16/10 Q1012
  • 140620Z 25004KT 220V280 9999 FEW046 BKN072 FEW220 15/10 Q1012

TAF AMD TAF ESPA
Valid from the 14 at 09:00 until the 14 at 18:00 UTC


140920Z 1409/1418 VRB02KT 9999 -SHRA SCT040TCU
TEMPO 1409/1414 5000 TSRA BKN040CB RMK MIL



MET'MAP, your aeronautical weather chart ! - Copyright ORBIFLY December 2007 - Disclaimer

ORBIFLY MET'MAP TEAM :

Programming & Development : Alexandra Zaïnal
Original concept : Baudouin d'Aumeries
Technical & hardware support : Manuel Goepfert
Assistance : Marc-Olivier Méhu




SOURCES & CREDITS :

   NOAA